Flight Track Log - Related Links

Times and Time Zones

All times are in EDT time to prevent confusion due to time zone crossing. See the CPT8773 flight status page for this flight to view local times or setup timezone preferences in your user account.

Time Position Orientation Groundspeed Altitude Reporting Facility
EDT Latitude Longitude Course Direction KTS MPH feet Rate Location/Type
Mon 09:48:07 AM 42.9744 -106.4575 351° North 114 131 7,700  Level Salt Lake Center
Mon 09:49:09 AM 43.0033 -106.4611 355° North 112 129 8,600 870 Climbing Salt Lake Center
Mon 09:50:18 AM 43.0344 -106.4614 360° North 107 123 9,600 824 Climbing Denver Center
Mon 09:51:20 AM 43.0642 -106.4619 359° North 101 116 10,400 732 Climbing Denver Center
Mon 09:52:00 AM 43.0653 -106.7043 307° West  Level Estimated
Mon 09:52:21 AM 43.0875 -106.4653 354° North 95 109 11,100  Level Denver Center
Mon 09:53:00 AM 43.1040 -106.7127 351° North  Level FlightAware Approximate
Mon 09:53:22 AM 43.1178 -106.4658 359° North 106 122 11,700  Level Denver Center
Mon 09:54:24 AM 43.1558 -106.4644 North 116 133 12,000 146 Climbing Denver Center
Mon 09:55:25 AM 43.1964 -106.4722 352° North 141 162 12,000  Level Denver Center
Mon 09:56:26 AM 43.2208 -106.5239 303° West 144 166 12,000  Level Denver Center
Mon 09:57:28 AM 43.2431 -106.5667 306° West 144 166 12,000  Level Denver Center
Mon 09:58:29 AM 43.2647 -106.6094 305° West 144 166 12,000  Level Denver Center
Mon 09:59:21 AM 43.2872 -106.6533 305° West 145 167 12,000  Level Salt Lake Center
Mon 10:00:22 AM 43.3097 -106.6958 306° West 145 167 12,000  Level Salt Lake Center
Mon 10:01:24 AM 43.3375 -106.7469 307° West 147 169 12,000  Level Salt Lake Center
Mon 10:02:25 AM 43.3606 -106.7903 306° West 149 171 12,000 49 Level Salt Lake Center
Mon 10:03:26 AM 43.3839 -106.8347 306° West 150 173 12,100 49 Climbing Salt Lake Center
Mon 10:04:28 AM 43.4106 -106.8875 305° West 152 175 12,100  Level Salt Lake Center
Mon 10:05:29 AM 43.4339 -106.9336 305° West 151 174 12,100 -49 Level Salt Lake Center
Mon 10:06:30 AM 43.4594 -106.9803 307° West 153 176 12,000 -49 Descending Salt Lake Center
Mon 10:07:32 AM 43.4842 -107.0267 306° West 151 174 12,000  Level Salt Lake Center
Mon 10:08:33 AM 43.5081 -107.0750 304° West 152 175 12,000  Level Salt Lake Center
Mon 10:09:34 AM 43.5314 -107.1192 306° West 144 166 12,000  Level Salt Lake Center
Mon 10:10:36 AM 43.5533 -107.1600 307° West 136 157 12,000  Level Salt Lake Center
Mon 10:11:37 AM 43.5764 -107.2089 303° West 129 148 12,000  Level Salt Lake Center
Mon 10:12:38 AM 43.5978 -107.2486 307° West 129 148 12,000  Level Salt Lake Center
Mon 10:13:40 AM 43.6189 -107.2892 306° West 129 148 12,000  Level Salt Lake Center
Mon 10:14:41 AM 43.6433 -107.3311 309° West 135 155 12,000  Level Salt Lake Center
Mon 10:15:43 AM 43.6661 -107.3742 306° West 137 158 12,000  Level Salt Lake Center
Mon 10:16:44 AM 43.6883 -107.4189 305° West 139 160 12,000  Level Salt Lake Center
Mon 10:17:46 AM 43.7119 -107.4611 308° West 139 160 12,000  Level Salt Lake Center
Mon 10:18:47 AM 43.7331 -107.5056 303° West 139 160 12,000  Level Salt Lake Center
Mon 10:19:48 AM 43.7550 -107.5500 304° West 139 160 12,000  Level Salt Lake Center
Mon 10:20:50 AM 43.7825 -107.6031 306° West 140 161 12,000  Level Salt Lake Center
Mon 10:21:51 AM 43.8050 -107.6481 305° West 141 162 12,000  Level Salt Lake Center
Mon 10:22:53 AM 43.8286 -107.6936 306° West 143 165 12,000  Level Salt Lake Center
Mon 10:23:54 AM 43.8519 -107.7386 306° West 144 166 12,000  Level Salt Lake Center
Mon 10:24:56 AM 43.8758 -107.7839 306° West 145 167 12,000  Level Salt Lake Center
Mon 10:25:57 AM 43.8994 -107.8289 306° West 144 166 12,000  Level Salt Lake Center
Mon 10:26:59 AM 43.9222 -107.8758 304° West 145 167 12,000  Level Salt Lake Center
Mon 10:28:00 AM 43.9464 -107.9225 306° West 147 169 12,000  Level Salt Lake Center
Mon 10:29:02 AM 43.9764 -107.9764 308° West 148 170 12,000 -145 Level Salt Lake Center
Mon 10:30:04 AM 44.0044 -108.0183 313° West 148 170 11,700 -439 Descending Salt Lake Center
Mon 10:31:05 AM 44.0328 -108.0653 310° West 152 175 11,100 -634 Descending Salt Lake Center
Mon 10:32:07 AM 44.0597 -108.1175 306° West 157 181 10,400 -629 Descending Salt Lake Center
Mon 10:33:09 AM 44.0861 -108.1694 305° West 161 185 9,800 -585 Descending Salt Lake Center
Mon 10:34:10 AM 44.1133 -108.2219 306° West 164 189 9,200 -390 Descending Salt Lake Center
Mon 10:35:12 AM 44.1397 -108.2725 306° West 164 189 9,000 -97 Descending Salt Lake Center
Mon 10:36:14 AM 44.1628 -108.3186 305° West 157 181 9,000 48 Level Salt Lake Center
Mon 10:37:16 AM 44.1897 -108.3722 305° West 149 171 9,100 49 Climbing Salt Lake Center
Mon 10:38:17 AM 44.2117 -108.4147 306° West 142 163 9,100  Level Salt Lake Center
Mon 10:39:19 AM 44.2342 -108.4589 305° West 140 161 9,100  Level Salt Lake Center

Login

Don't have an account? Register now (free) for customized features, flight alerts, and more!